[Jeden Montag | 1900lcl - 2200lcl ] EDDL | Düsseldorf Monday

Zu Eventkalender hinzugefügt: 557 dates

RG Düsseldorf - Event
ACtC-3fxPHH-pFI9LbR6lefGD142tAQVEnYcfKRyOc-x7T_VQnoY2ipS-QdAKGyfZipsn5BZEEvs7ku6z8R716r8AdwAB7F5ue9eL57Bj8VQAhiCdn9obOwRAULzvGNOBZ83ZRwxybPOxP6a4BzeNtjHmBom=w800-h526-no




Heute ist wieder Düsseldorf Monday

Zum Wochenstart haben wir wie jede Woche unseren Ausbildungs Flughafen in Düsseldorf von DEL bis CTR voll für euch besetzt.
Das Wetter verspricht heute nicht so schönes Flugwetter bei viel wechselnden Bedingungen, also beste Voraussetzungen für den Weg ins Virtuelle Cockpit.
Genießt wie immer unseren gewohnt guten ATC Service und beginnt oder beendet heute euren Flug bei uns.

Wie jede Woche bietet sich natürlich unsere kleine Rennstrecke zu den Kollegen in Nürnberg (EDDN) die wie gewohnt heute auch ihren Onlinetag haben.
Aber auch ein Trip zum "Vectors to Copenhagen“ ist wie immer eine gute Alternative.


Also seid dabei ab 17:00z (19:00lcl) wenn es wieder heißt "Willkommen an ihrem Flughafen Düsseldorf"

Wir freuen uns bis Gleich!



Nützliche Infos:

Scenery:

TAF:
  • EDDL 271100Z 2712/2818 18011KT 9999 SCT030 PROB30 TEMPO 2715/2718 24012KT RA BKN012 BECMG 2716/2719 24007KT BECMG 2800/2803 18006KT
 
RG Düsseldorf - Event
ACtC-3fxPHH-pFI9LbR6lefGD142tAQVEnYcfKRyOc-x7T_VQnoY2ipS-QdAKGyfZipsn5BZEEvs7ku6z8R716r8AdwAB7F5ue9eL57Bj8VQAhiCdn9obOwRAULzvGNOBZ83ZRwxybPOxP6a4BzeNtjHmBom=w800-h526-no



Heute heißt es wieder Düsseldorf Monday und wir haben ein volles Programm für euch!

Ab 19:00lcl öffnen Wir mit kompletter Besetzung den Düsseldorf Airport für euch und freuen uns auf euren Besuch!

Dazu sind heute Abend wieder mehrere Trainees am und um den Airport auf den Stationen präsent und freuen sich über euren Besuch im Airspace der RG Düsseldorf!
Das Wetter sollte soweit mitspielen und auch einen VFR Flug zu einem der Minors im RG Gebiet oder rüber nach Köln sind möglich und erwünscht!

Für die etwas längere Strecke bietet sich natürlich wieder der Highway nach Nürnberg (EDDN) an und auch die Kollegen in Kopenhagen (EKCH) und Budapest (LHBP) werden online sein :)

Wer nach dem "Cross the Land" am Samstag noch nicht genug hat und sich vielleicht auf den "Cross the Pond" vorbereiten möchte dem können wir einen Ausflug nach Kanada empfehlen zum "Moncton Monday".

Wir freuen uns auf eure Flüge heute Abend in unserem Sektor!



Nützliche Infos:

Scenery:

TAF:
  • EDDL 040500Z 0406/0512 16009KT CAVOK TEMPO 0410/0416 19014KT BECMG 0509/0512 16014KT
 
RG Düsseldorf - Event
+++Wichtige Info+++
Liebe Piloten Entschuldigt das Aktuelle Chaos um den Flughafen Düsseldorf. Wie ihr sicher gemerkt habt schmieren momentan alle 5 Minuten die Vatsim Server ab und nicht alle Controller können sich derzeit mit dem Netzwerk Verbinden oder bleiben Dauerhaft drauf. Wir hoffen das, dass Problem bald behoben ist und wir euch wieder den Gewohnten Service in Düsseldorf bieten können.
 
RG Düsseldorf - Event
ACtC-3fxPHH-pFI9LbR6lefGD142tAQVEnYcfKRyOc-x7T_VQnoY2ipS-QdAKGyfZipsn5BZEEvs7ku6z8R716r8AdwAB7F5ue9eL57Bj8VQAhiCdn9obOwRAULzvGNOBZ83ZRwxybPOxP6a4BzeNtjHmBom=w800-h526-no



Heute heißt es wieder Düsseldorf Monday und wir haben ein volles Programm für euch!

Ab 19:00lcl öffnen Wir mit kompletter Besetzung den Düsseldorf Airport für euch und freuen uns auf euren Besuch!

Dazu sind heute Abend wieder mehrere Trainees am und um den Airport auf den Stationen präsent und freuen sich über euren Besuch im Airspace der RG Düsseldorf!
Das Wetter sollte soweit mitspielen und auch einen VFR Flug zu einem der Minors im RG Gebiet oder rüber nach Köln sind möglich und erwünscht!

Für die etwas längere Strecke bietet sich natürlich wieder der Highway nach Nürnberg (EDDN) an und auch die Kollegen in Kopenhagen (EKCH) und Budapest (LHBP) werden online sein :)


Wir freuen uns auf eure Flüge heute Abend in unserem Sektor!



Nützliche Infos:

Scenery:

TAF:
  • EDDL 250500Z 2506/2612 17010KT 9999 BKN040 BECMG 2521/2524 23011KT BECMG 2603/2606 BKN012 PROB30 TEMPO 2605/2609 BKN008 BECMG 2609/2612 BKN020
 
RG Düsseldorf - Event
ACtC-3fxPHH-pFI9LbR6lefGD142tAQVEnYcfKRyOc-x7T_VQnoY2ipS-QdAKGyfZipsn5BZEEvs7ku6z8R716r8AdwAB7F5ue9eL57Bj8VQAhiCdn9obOwRAULzvGNOBZ83ZRwxybPOxP6a4BzeNtjHmBom=w800-h526-no



Heute heißt es wieder Düsseldorf Monday und wir haben ein volles Programm für euch!

Ab 19:00lcl öffnen Wir mit kompletter Besetzung den Düsseldorf Airport für euch und freuen uns auf euren Besuch!

Dazu sind heute Abend wieder mehrere Trainees am und um den Airport auf den Stationen präsent und freuen sich über euren Besuch im Airspace der RG Düsseldorf!
Das Wetter sollte soweit mitspielen und auch einen VFR Flug zu einem der Minors im RG Gebiet oder rüber nach Köln sind möglich und erwünscht!

Für die etwas längere Strecke bietet sich natürlich wieder der Highway nach Nürnberg (EDDN) an und auch die Kollegen in Kopenhagen (EKCH) und Budapest (LHBP) werden online sein :)


Wir freuen uns auf eure Flüge heute Abend in unserem Sektor!



Nützliche Infos:

Scenery:

TAF:
  • EDDL 081100Z 0812/0918 23006KT 9999 FEW020 BKN045 BECMG 0820/0822 VRB03KT BECMG 0822/0824 17005KT PROB30 TEMPO 0900/0906 VRB03KT 1500 BCFG PROB30 TEMPO 0906/0909 BKN005

Routes:
  • EDDN - EDDL (1800z - 2100z)
    • SULUS L604 MASEK Z52 ARPEG Z850 ADEMI T854 DOMUX
  • EDDL - EDDN
    • KUMIK L603 TESGA Z719 ETOLU Z723 KOMIB T193 ERTES

  • EKCH - EDDL (1800z - 2100z)
    • NEXEN T503 GIMRU MICOS KEGAB UZ706 MOBSA L980 OSN M170 HMM T851 HALME
  • EDDL - EKCH
    • MEVEL L179 MISRI Z851 OSDIK MOBSA UZ706 KEGAB MAKEL N851 GESKA Z711 MONAK

  • LHBP - EDDL (1800z - 2100z)
    • GILEP ZOLKU BEGLA LAMSI L604 RUDNO SULUS T852 TINSA T854 DOMUX
  • EDDL - LHBP
    • DODEN Y853 BOMBI ESATI BARSU EXITI DEXIT MAREG ANEXA
 
RG Düsseldorf - Event
Military - Moderator
Hallo zusammen!

Heute starten wir wieder in eine neue "VATSIM-Woche" und freuen uns, euch den Start mit unserem Düsseldorf Monday zu versüßen!

Ab 19lcl (18z) habt ihr die Möglichkeit uns in der Landeshauptstadt zu besuchen und dabei kompletten ATC Service zu genießen.
Also nichts wie los und wir hören uns heute Abend auf den Frequenzen!


Nützliche Infos:

Scenery:

TAF:
  • EDDL 150500Z 1506/1612 04006KT 9999 OVC012 PROB30 TEMPO 1506/1510 BKN008 BECMG 1510/1513 OVC020 BECMG 1519/1522 OVC012 PROB30 TEMPO 1600/1611 4500 BR BKN006
 
RG Düsseldorf - Event
ACtC-3fxPHH-pFI9LbR6lefGD142tAQVEnYcfKRyOc-x7T_VQnoY2ipS-QdAKGyfZipsn5BZEEvs7ku6z8R716r8AdwAB7F5ue9eL57Bj8VQAhiCdn9obOwRAULzvGNOBZ83ZRwxybPOxP6a4BzeNtjHmBom=w800-h526-no



Heute ist wieder Düsseldorf Monday

Zum Wochenstart haben wir wie jede Woche unseren Ausbildungs Flughafen in Düsseldorf von DEL bis CTR voll für euch besetzt.
Das Wetter ist heute echt super und der Hinmel Glas klar das sind beste Voraussetzungen für den weg ins Virtuelle Cockpit für euch.
Genießt wie immer unseren gewohnt guten ATC Service und beginnt oder beendet heute euren Flug bei uns.

Wie jede Woche bietet sich natürlich unsere kleine Rennstrecke zu den Kollegen in Nürnberg (EDDN) die wie gewohnt heute auch ihren Onlinetag haben.


Also seid dabei ab 18:00z (19:00lcl) wenn es wieder heißt "Willkommen an ihrem Flughafen Düsseldorf"

Wir freuen uns bis Gleich!



Nützliche Infos:

Scenery:

TAF:
  • TAF: EDDL 220500Z 2206/2312 03009KT 9999 BKN015 TEMPO 2206/2210 BKN010 BECMG 2218/2220 VRB03KT PROB30 TEMPO 2223/2304 0800 FZFG BECMG 2304/2307 4000 BR BECMG 2308/2310 8000BKN010
 
Zuletzt bearbeitet:
RG Düsseldorf - Event
ACtC-3fxPHH-pFI9LbR6lefGD142tAQVEnYcfKRyOc-x7T_VQnoY2ipS-QdAKGyfZipsn5BZEEvs7ku6z8R716r8AdwAB7F5ue9eL57Bj8VQAhiCdn9obOwRAULzvGNOBZ83ZRwxybPOxP6a4BzeNtjHmBom=w800-h526-no





Heute ist wieder ein mal Montag und zum Wochenstart darf der Düsseldorf Monday nicht fehlen.

Wie jede Woche öffnen wir unseren Flughafen in Düsseldorf von DEL bis CTR für euch.
Die TAF verrät uns das es Langsam Winter wird in NRW und das heißt es wird Kalt und man spricht sogar von Schneeregen, was heißt es für uns? Die beste Wahl ist wohl heute rein ins Warme Home Cockpit und Virtuell beim Düsseldorf Monday seinen Flug Starten oder Beenden.
Genießt wie immer unseren gewohnt guten ATC Service in und um Düsseldorf.

Wie jede Woche bietet sich natürlich unsere kleine Rennstrecke zu den Kollegen in Nürnberg (EDDN) an, die wie gewohnt heute auch ihren Onlinetag haben.

Also seid dabei ab 18:00z (19:00lcl) wenn es wieder heißt "Willkommen an ihrem Flughafen Düsseldorf"

Wir freuen uns bis Gleich!



Nützliche Infos:

Scenery:

TAF:
  • TAF: EDDL 061029Z 0610/0712 23006KT 3500 BR BKN006 TEMPO 0610/0612 2000 BR BKN003 BECMG 0612/0615 17010KT 9999 SCT015 BECMG 0620/0622 2500 RASN BKN007 BECMG 0623/0701 24008KT 9999 NSW SCT025
 
RG Düsseldorf - Event
Military - Moderator
Uuund ab geht die Post!

Wir sind ab jetzt bis mindestens 22lcl online für euch!
Wie jeden Montag öffnen wir die Landeshauptstadt für eure Wünsche und freuen uns auf euren Besuch in Düsseldorf!
Desweiteren bieten sich Strecken nach Nürnberg und Budapest an... also ab in den Flieger und auf nach Düsseldorf!

Bis gleich, wir freuen uns auf euch! ;)


Nützliche Infos:

Scenery:
 
RG Düsseldorf - Event
Military - Moderator
Heute leider etwas verspätet, aber wir sind heute natürlich auch wieder am Start für euch!
Bis mindestens 22lcl bieten wir feinsten Service in der Rheinmetropole Düsseldorf an und freuen uns über euren Besuch in der Landeshauptstadt.

Das Wetter spielt nicht ganz so mit, bietet aber genug Anreize für etwaige Specials oder Sonstiges! ;)

Wir freuen uns auf euch!


Nützliche Infos:

Scenery:
 
RG Düsseldorf - Event
Military - Moderator
Hohoho!

Die meisten Weihnachtsfeiern sind um und wir warten gespannt auf den Jahreswechsel...
Wie gut, dass es zwischen den Feiertagen noch einen Düsseldorf Monday gibt, um all die Neuzugänge, die man über Weihnachten erhalten hat, auszuprobieren! :p

Also nichts wie ran an den PC und ab aufs Netzwerk! Wir freuen uns, euch heute von 19lcl bis mindestens 22lcl auf unseren Frequenzen begrüßen zu dürfen :)
Auch wenn das Wetter nicht ganz so mitspielen könnte, bieten sich euch genug Möglichkeiten, um uns allen den Abend zu versüßen :p

Ebenfalls freuen sich unsere Kollegen aus Nürnberg, Kopenhagen und Budapest auf euren Besuch!

Wir hören uns heute Abend!


Nützliche Infos:

Scenery:
TAF:
EDDL 270500Z 2706/2812 15011KT 9999 BKN020 TEMPO 2706/2712 BKN012 PROB30 TEMPO 2706/2710 BKN008 PROB40 TEMPO 2719/2807 RA BKN012 BECMG 2809/2812 21014KT
 
RG Düsseldorf - Event
ACtC-3fxPHH-pFI9LbR6lefGD142tAQVEnYcfKRyOc-x7T_VQnoY2ipS-QdAKGyfZipsn5BZEEvs7ku6z8R716r8AdwAB7F5ue9eL57Bj8VQAhiCdn9obOwRAULzvGNOBZ83ZRwxybPOxP6a4BzeNtjHmBom=w800-h526-no


Heute ist der erste Montag im Jahr 2022 und natürlich sind wir auch im neuen Jahr für euch ab 19:00lcl Online

Wie auch im alten Jahr öffnen wir heute unseren Flughafen in Düsseldorf von DEL bis CTR für euch.
Die Nacht wurden wir gut durchgepustet aber der Wind lässt im laufe des Tages nach und so soll es heute Abend nur noch eine frische Briese geben. Die beste Wahl ist wohl heute rein ins Warme Home Cockpit und Virtuell beim Düsseldorf Monday seinen Flug Starten oder Beenden.
Genießt wie immer unseren gewohnt guten ATC Service in und um Düsseldorf.

Wie jede Woche bietet sich natürlich unsere kleine Rennstrecke zu den Kollegen in Nürnberg (EDDN) an, die wie gewohnt heute auch ihren Onlinetag haben.

Also seid dabei ab 18:00z (19:00lcl) wenn es wieder heißt "Willkommen an ihrem Flughafen Düsseldorf"

Wir freuen uns auf euch und Wünschen euch noch ein frohes neues Jahr!



Nützliche Infos:

Scenery:

TAF:
  • TAF: EDDL 030500Z 0306/0412 24015G25KT 9999 SCT020 BKN035 TEMPO 0306/0310 24012KT PROB30 TEMPO 0311/0316 25020G30KT SHRA SCT020CB BECMG 0316/0318 22010KT BECMG 0402/0404 18005KT PROB30 TEMPO 0407/0412 4500 RA BKN012
 
RG Düsseldorf - Event
ACtC-3fxPHH-pFI9LbR6lefGD142tAQVEnYcfKRyOc-x7T_VQnoY2ipS-QdAKGyfZipsn5BZEEvs7ku6z8R716r8AdwAB7F5ue9eL57Bj8VQAhiCdn9obOwRAULzvGNOBZ83ZRwxybPOxP6a4BzeNtjHmBom=w800-h526-no


Heute ist wieder ein mal Montag und zum Wochenstart darf der Düsseldorf Monday nicht fehlen.

Wie jede Woche öffnen wir unseren Flughafen in Düsseldorf von DEL bis CTR für euch.
Die TAF verrät uns das es Langsam Winter wird in NRW und das heißt es wird Kalt und man spricht sogar von Schneeregen, was heißt es für uns? Die beste Wahl ist wohl heute rein ins Warme Home Cockpit und Virtuell beim Düsseldorf Monday seinen Flug Starten oder Beenden.
Genießt wie immer unseren gewohnt guten ATC Service in und um Düsseldorf.

Wie jede Woche bietet sich natürlich unsere kleine Rennstrecke zu den Kollegen in Nürnberg (EDDN) an, die wie gewohnt heute auch ihren Onlinetag haben.

Also seid dabei ab 18:00z (19:00lcl) wenn es wieder heißt "Willkommen an ihrem Flughafen Düsseldorf"

Wir freuen uns bis Gleich!



Nützliche Infos:

Scenery:

TAF:
  • TAF: EDDL 100500Z 1006/1112 17006KT 9999 FEW030 PROB30 TEMPO 1006/1010 4000 BR BKN014 PROB30 TEMPO 1104/1109 0700 FZFG
 
RG Düsseldorf - Event
ACtC-3fxPHH-pFI9LbR6lefGD142tAQVEnYcfKRyOc-x7T_VQnoY2ipS-QdAKGyfZipsn5BZEEvs7ku6z8R716r8AdwAB7F5ue9eL57Bj8VQAhiCdn9obOwRAULzvGNOBZ83ZRwxybPOxP6a4BzeNtjHmBom=w800-h526-no



Heute ist wieder Düsseldorf Monday

Zum Wochenstart haben wir wie jede Woche unseren Ausbildungs Flughafen in Düsseldorf von DEL bis CTR voll für euch besetzt.
Das Wetter verspricht heute nicht so schönes Flugwetter bei viel wechselnden Bedingungen, also beste Voraussetzungen für den Weg ins Virtuelle Cockpit.
Genießt wie immer unseren gewohnt guten ATC Service und beginnt oder beendet heute euren Flug bei uns.

Wie jede Woche bietet sich natürlich unsere kleine Rennstrecke zu den Kollegen in Nürnberg (EDDN) die wie gewohnt heute auch ihren Onlinetag haben.
Aber auch ein Trip zum "Vectors to Copenhagen“ ist wie immer eine gute Alternative oder zum Tower CPT nach Geneva (LSGG) das Heute stattfindet.


Also seid dabei ab 18:00z (19:00lcl) wenn es wieder heißt "Willkommen an ihrem Flughafen Düsseldorf"

Wir freuen uns bis Gleich!



Nützliche Infos:

Scenery:

TAF:
  • EDDL 170500Z 1706/1812 25009KT 7000 SCT010 BKN030 PROB30 TEMPO 1706/1711 BKN010 BECMG 1711/1714 BKN012 PROB30 TEMPO 1712/1717 BKN008 BECMG 1717/1720 31006KT BKN007 PROB30 TEMPO 1720/1811 4000 -DZRA BKN004 BECMG 1810/1812 SCT007 BKN015
 
Zuletzt bearbeitet:
RG Düsseldorf - Event
Military - Moderator
ACtC-3fxPHH-pFI9LbR6lefGD142tAQVEnYcfKRyOc-x7T_VQnoY2ipS-QdAKGyfZipsn5BZEEvs7ku6z8R716r8AdwAB7F5ue9eL57Bj8VQAhiCdn9obOwRAULzvGNOBZ83ZRwxybPOxP6a4BzeNtjHmBom=w800-h526-no


Heute leider leicht verspätet, aber wir sind da! :p
Unser Düsseldorf Monday startet mal wieder in eine neue Woche und wir freuen uns, euch auf unseren Frequenzen empfangen zu können!
Selbstverständlich haben wir wieder volles Programm für euch aufgefahren und bieten euch kompletten ATC Service :)

Nichts wie los und schwingt euch in die fliegenden Kisten, egal ob IFR, VFR oder Specials :)

Nützliche Infos:


Scenery:


TAF:
  • EDDL 241700Z 2418/2524 14004KT 9999 BKN015 TEMPO 2418/2518 BKN012 PROB30 TEMPO 2502/2518 4000 BR BKN007 BECMG 2518/2521 BKN011 TEMPO 2518/2524 3000 BR BKN008
 
RG Düsseldorf - Event
ACtC-3fxPHH-pFI9LbR6lefGD142tAQVEnYcfKRyOc-x7T_VQnoY2ipS-QdAKGyfZipsn5BZEEvs7ku6z8R716r8AdwAB7F5ue9eL57Bj8VQAhiCdn9obOwRAULzvGNOBZ83ZRwxybPOxP6a4BzeNtjHmBom=w800-h526-no



Heute wird es Stürmisch in Düsseldorf

Zum Wochenstart haben wir wie jede Woche unseren Ausbildungs Flughafen in Düsseldorf von DEL bis CTR voll für euch besetzt.
Das Wetter verspricht heute nicht so schönes Flugwetter bei viel wechselnden Bedingungen und Böen bis 25 Knoten am Abend, also beste Voraussetzungen für den Weg ins Virtuelle Cockpit und mal seine Skills bei nicht so guten Bedingungen zu üben.
Genießt wie immer unseren gewohnt guten ATC Service und beginnt oder beendet heute euren Flug bei uns.

Wie jede Woche bietet sich natürlich unsere kleine Rennstrecke zu den Kollegen in Nürnberg (EDDN) die wie gewohnt heute auch ihren Onlinetag haben.
Aber auch ein Trip zum "Vectors to Copenhagen“ ist wie immer eine gute Alternative.


Also seid dabei ab 18:00z (19:00lcl) wenn es wieder heißt "Willkommen an ihrem Flughafen Düsseldorf"

Wir freuen uns bis Gleich!



Nützliche Infos:

Scenery:

TAF:
  • EDDL 310656Z 3106/0112 28020G30KT 9999 BKN020 TEMPO 3106/3109 30025G35KT 4000 RA BKN010 TEMPO 3109/3115 31025G40KT RA BKN008 PROB30 TEMPO 3115/3121 4000 SHRA BKN012TCU BECMG 3118/3121 31015G25KT BECMG 3122/0101 30009KT BECMG 0102/0105 24010KT BECMG 0107/0110 24015G25KT RA BKN010
 
RG Düsseldorf - Event
Military - Moderator
ACtC-3fxPHH-pFI9LbR6lefGD142tAQVEnYcfKRyOc-x7T_VQnoY2ipS-QdAKGyfZipsn5BZEEvs7ku6z8R716r8AdwAB7F5ue9eL57Bj8VQAhiCdn9obOwRAULzvGNOBZ83ZRwxybPOxP6a4BzeNtjHmBom=w800-h526-no


Und wieder beginnt eine neue frische Woche...!
Natürlich laden wir euch auch heute zu unserem wöchentlichen Düsseldorf Monday ein ;)

Heute sind wirklich alle verfügbaren Stationen in Düsseldorf besetzt und ihr dürft euch auf ein gut gefülltes Vorfeld freuen! :p
Für die Spontaneren unter euch bieten sich natürlich auch wieder Destinationen wie Nürnberg, Kopenhagen oder Budapest an :)
Natürlich lässt sich die Gegend auch wunderbar per VFR erkunden!

Ihr seht also, dass es genug Gründe gibt, um uns heute in Düsseldorf zu besuchen!

Bis heute Abend um 1800z ;)


Nützliche Infos:

Scenery:

TAF:
  • EDDL 070500Z 0706/0812 28013KT 9999 SCT030 BECMG 0714/0717 24008KT BECMG 0723/0802 22013KT TEMPO 0803/0806 BKN012 BECMG 0806/0809 BKN012 PROB30 TEMPO 0808/0812 4000 -DZRA BKN007
 
Zuletzt bearbeitet:
Oben